Terminal Aerodrome Forecast
Issued by NWS Glasgow, MT

Home | Current Version | Previous Version | Text Only | Print | Product List | Glossary On
Versions: 1 2 3 4 5 6 7 8 9 10 11 12 13 14 15
436
FTUS45 KGGW 121724
TAFGGW
TAF
KGGW 121724Z 1218/1318 11018KT P6SM VCSH OVC020
     FM122300 11017KT 1SM -SN OVC015
     FM130500 11017KT P6SM VCSH OVC015
     FM130900 11015KT P6SM VCSH OVC080=

USA.gov is the U.S. government's official web portal to all federal, state and local government web resources and services.